Time;durP1;ratioP1;P1;durP2;ratioP2;P2;SDS_P1;SDS_P2;PMS_P1;PMS_P2;Temp;Humidity;BMP_temperature;BMP_pressure;BME280_temperature;BME280_humidity;BME280_pressure;Samples;Min_cycle;Max_cycle;Signal;HPM_P1;HPM_P2
2023/06/06 00:02:21;;;;;;;15.63;11.90;;;17.50;99.90;;;;;;5111967;28;20103;-70
2023/06/06 00:04:49;;;;;;;17.73;12.27;;;17.50;99.90;;;;;;5112224;28;20369;-70
2023/06/06 00:07:16;;;;;;;12.95;11.50;;;17.50;99.90;;;;;;5112400;28;20019;-70
2023/06/06 00:09:43;;;;;;;17.42;11.93;;;17.50;99.90;;;;;;5112177;28;20028;-70
2023/06/06 00:12:12;;;;;;;15.65;11.90;;;17.50;99.90;;;;;;5112268;28;20028;-70
2023/06/06 00:14:40;;;;;;;16.20;12.13;;;17.50;99.90;;;;;;5112756;28;20371;-70
2023/06/06 00:17:06;;;;;;;13.93;11.52;;;17.50;99.90;;;;;;5112539;28;20023;-70
2023/06/06 00:19:32;;;;;;;16.15;12.30;;;17.50;99.90;;;;;;5112096;28;20036;-70
2023/06/06 00:21:58;;;;;;;16.77;12.40;;;17.50;99.90;;;;;;5112722;28;20024;-70
2023/06/06 00:24:24;;;;;;;13.57;12.07;;;17.50;99.90;;;;;;5114204;28;20151;-70
2023/06/06 00:26:50;;;;;;;13.25;11.88;;;17.50;99.90;;;;;;5116184;28;20020;-70
2023/06/06 00:29:16;;;;;;;15.38;11.68;;;17.50;99.90;;;;;;5115936;28;20032;-70
2023/06/06 00:31:41;;;;;;;15.30;12.02;;;17.50;99.90;;;;;;5116046;28;20024;-70
2023/06/06 00:34:07;;;;;;;14.40;12.25;;;17.50;99.90;;;;;;5116222;28;20027;-70
2023/06/06 00:36:33;;;;;;;13.80;12.35;;;17.50;99.90;;;;;;5115564;28;20035;-70
2023/06/06 00:38:58;;;;;;;13.82;12.30;;;17.50;99.90;;;;;;5115993;28;20051;-70
2023/06/06 00:41:24;;;;;;;15.63;12.93;;;17.50;99.90;;;;;;5115525;28;20023;-70
2023/06/06 00:43:50;;;;;;;18.25;12.02;;;17.50;99.90;;;;;;5115860;28;20051;-70
2023/06/06 00:46:17;;;;;;;13.68;11.73;;;17.50;99.90;;;;;;5115262;28;20471;-70
2023/06/06 00:48:43;;;;;;;12.88;11.25;;;17.50;99.90;;;;;;5115821;28;20032;-70
2023/06/06 00:51:10;;;;;;;16.70;12.55;;;17.50;99.90;;;;;;5115579;28;20028;-70
2023/06/06 00:53:36;;;;;;;14.45;12.85;;;17.50;99.90;;;;;;5115220;27;20023;-70
2023/06/06 00:56:03;;;;;;;14.18;12.00;;;17.50;99.90;;;;;;5115707;28;20032;-70
2023/06/06 00:58:30;;;;;;;19.75;13.05;;;17.50;99.90;;;;;;5113847;28;20027;-70
2023/06/06 01:00:57;;;;;;;13.73;12.23;;;17.40;99.90;;;;;;5115573;28;20024;-70
2023/06/06 01:03:24;;;;;;;17.65;12.77;;;17.40;99.90;;;;;;5115161;28;20023;-70
2023/06/06 01:05:55;;;;;;;15.20;11.88;;;17.40;99.90;;;;;;5115405;28;20023;-70
2023/06/06 01:08:21;;;;;;;;;;;17.40;99.90;;;;;;5115498;28;20027;-70
2023/06/06 01:10:47;;;;;;;12.88;11.57;;;17.40;99.90;;;;;;5115248;28;19954;-70
2023/06/06 01:13:45;;;;;;;14.07;11.68;;;17.40;99.90;;;;;;5114954;28;20023;-76
2023/06/06 01:16:18;;;;;;;16.23;12.57;;;17.40;99.90;;;;;;5115364;28;20024;-70
2023/06/06 01:18:45;;;;;;;14.35;12.82;;;17.40;99.90;;;;;;5114932;28;20539;-70
2023/06/06 01:21:12;;;;;;;15.57;12.00;;;17.40;99.90;;;;;;5114697;28;20028;-70
2023/06/06 01:23:38;;;;;;;15.38;12.77;;;17.40;99.90;;;;;;5114385;28;20019;-70
2023/06/06 01:26:07;;;;;;;17.73;13.50;;;17.40;99.90;;;;;;5114815;28;20107;-70
2023/06/06 01:28:32;;;;;;;18.35;13.75;;;17.40;99.90;;;;;;5114509;28;20031;-70
2023/06/06 01:30:58;;;;;;;15.73;12.73;;;17.40;99.90;;;;;;5114871;28;20110;-70
2023/06/06 01:33:43;;;;;;;14.13;12.70;;;17.40;99.90;;;;;;5113328;28;20583;-70
2023/06/06 01:36:18;;;;;;;14.27;11.93;;;17.40;99.90;;;;;;5113819;28;20048;-69
2023/06/06 01:38:53;;;;;;;17.85;11.90;;;17.40;99.90;;;;;;5114592;28;20119;-71
2023/06/06 01:41:22;;;;;;;14.43;12.80;;;17.40;99.90;;;;;;5114316;28;20119;-72
2023/06/06 01:43:52;;;;;;;15.57;12.98;;;17.40;99.90;;;;;;5116195;28;20106;-70
2023/06/06 01:46:20;;;;;;;14.53;12.00;;;17.40;99.90;;;;;;5093566;28;20048;-72
2023/06/06 01:48:46;;;;;;;14.68;12.18;;;17.40;99.90;;;;;;5094086;28;20031;-70
2023/06/06 01:51:12;;;;;;;17.48;12.80;;;17.40;99.90;;;;;;5094228;28;20031;-71
2023/06/06 01:53:37;;;;;;;15.60;13.02;;;17.40;99.90;;;;;;5093848;28;20024;-71
2023/06/06 01:56:03;;;;;;;15.15;12.38;;;17.30;99.90;;;;;;5112114;28;20483;-71
2023/06/06 01:58:29;;;;;;;17.15;12.60;;;17.40;99.90;;;;;;5113617;28;20031;-71
2023/06/06 02:00:55;;;;;;;15.60;12.85;;;17.40;99.90;;;;;;5113828;28;20476;-71
2023/06/06 02:03:20;;;;;;;15.57;13.05;;;17.40;99.90;;;;;;5112588;28;20020;-72
2023/06/06 02:05:46;;;;;;;16.05;13.25;;;17.40;99.90;;;;;;5113939;28;20050;-71
2023/06/06 02:08:12;;;;;;;16.35;11.75;;;17.40;99.90;;;;;;5114303;28;20023;-71
2023/06/06 02:10:38;;;;;;;14.90;12.45;;;17.40;99.90;;;;;;5113702;28;20364;-70
2023/06/06 02:13:03;;;;;;;14.55;12.15;;;17.40;99.90;;;;;;5113871;28;20027;-69
2023/06/06 02:15:30;;;;;;;17.80;13.57;;;17.40;99.90;;;;;;5113686;28;20110;-69
2023/06/06 02:17:56;;;;;;;15.52;12.23;;;17.40;99.90;;;;;;5111642;28;20027;-69
2023/06/06 02:20:21;;;;;;;14.90;12.70;;;17.40;99.90;;;;;;5113696;28;20027;-70
2023/06/06 02:22:47;;;;;;;14.80;12.00;;;17.40;99.90;;;;;;5113956;28;20030;-71
2023/06/06 02:25:13;;;;;;;13.63;12.23;;;17.40;99.90;;;;;;5114086;28;20415;-71
2023/06/06 02:27:39;;;;;;;16.48;12.10;;;17.40;99.90;;;;;;5113454;28;20031;-71
2023/06/06 02:30:07;;;;;;;17.48;11.88;;;17.40;99.90;;;;;;5113763;28;20039;-71
2023/06/06 02:32:33;;;;;;;17.83;12.38;;;17.40;99.90;;;;;;5113476;28;20027;-71
2023/06/06 02:35:03;;;;;;;15.00;12.02;;;17.40;99.90;;;;;;5113664;28;20464;-71
2023/06/06 02:37:30;;;;;;;12.05;10.85;;;17.40;99.90;;;;;;5113251;28;20023;-71
2023/06/06 02:39:56;;;;;;;13.35;11.95;;;17.40;99.90;;;;;;5113443;28;20039;-71
2023/06/06 02:42:21;;;;;;;15.73;11.63;;;17.40;99.90;;;;;;5112858;28;20022;-72
2023/06/06 02:44:47;;;;;;;15.48;11.75;;;17.40;99.90;;;;;;5113363;28;20027;-71
2023/06/06 02:47:12;;;;;;;17.58;11.05;;;17.40;99.90;;;;;;5113055;28;20047;-72
2023/06/06 02:49:39;;;;;;;12.30;11.05;;;17.30;99.90;;;;;;5113166;28;20106;-71
2023/06/06 02:52:05;;;;;;;14.82;12.05;;;17.30;99.90;;;;;;5113313;28;20075;-70
2023/06/06 02:54:31;;;;;;;16.67;12.27;;;17.30;99.90;;;;;;5113018;28;20056;-72
2023/06/06 02:56:57;;;;;;;13.70;11.98;;;17.30;99.90;;;;;;5113024;28;20067;-69
2023/06/06 02:59:22;;;;;;;14.18;11.13;;;17.30;99.90;;;;;;5112795;28;20028;-75
2023/06/06 03:01:49;;;;;;;13.68;11.00;;;17.30;99.90;;;;;;5112757;28;20472;-69
2023/06/06 03:04:14;;;;;;;12.90;11.20;;;17.30;99.90;;;;;;5113011;28;20024;-69
2023/06/06 03:06:41;;;;;;;14.93;11.48;;;17.30;99.90;;;;;;5112466;28;20517;-69
2023/06/06 03:09:07;;;;;;;12.25;10.95;;;17.30;99.90;;;;;;5112533;28;20027;-70
2023/06/06 03:11:34;;;;;;;13.00;11.30;;;17.30;99.90;;;;;;5112404;28;20043;-69
2023/06/06 03:14:00;;;;;;;14.15;10.95;;;17.30;99.90;;;;;;5112741;28;20517;-70
2023/06/06 03:16:28;;;;;;;12.48;11.18;;;17.30;99.90;;;;;;5112684;28;20024;-70
2023/06/06 03:18:55;;;;;;;13.60;12.18;;;17.30;99.90;;;;;;5113113;28;20030;-70
2023/06/06 03:21:20;;;;;;;13.07;11.27;;;17.40;99.90;;;;;;5113020;28;20028;-70
2023/06/06 03:23:47;;;;;;;14.15;11.63;;;17.30;99.90;;;;;;5112376;28;20436;-70
2023/06/06 03:26:13;;;;;;;15.05;11.93;;;17.40;99.90;;;;;;5113362;28;20031;-70
2023/06/06 03:28:39;;;;;;;15.82;12.38;;;17.30;99.90;;;;;;5112671;28;20031;-69
2023/06/06 03:31:06;;;;;;;18.20;12.27;;;17.40;99.90;;;;;;5111611;28;20107;-69
2023/06/06 03:33:32;;;;;;;15.90;12.52;;;17.30;99.90;;;;;;5112507;28;20517;-72
2023/06/06 03:35:58;;;;;;;18.23;12.82;;;17.30;99.90;;;;;;5112875;28;20371;-70
2023/06/06 03:38:24;;;;;;;15.77;12.57;;;17.30;99.90;;;;;;5112871;28;20028;-69
2023/06/06 03:40:50;;;;;;;16.63;13.05;;;17.40;99.90;;;;;;5112522;28;20443;-69
2023/06/06 03:43:15;;;;;;;14.20;11.95;;;17.40;99.90;;;;;;5112920;28;20088;-69
2023/06/06 03:45:41;;;;;;;16.70;12.68;;;17.40;99.90;;;;;;5112249;28;20047;-70
2023/06/06 03:48:09;;;;;;;17.25;12.85;;;17.40;99.90;;;;;;5113238;28;20391;-69
2023/06/06 03:50:35;;;;;;;16.67;12.90;;;17.40;99.90;;;;;;5112344;28;20040;-69
2023/06/06 03:53:01;;;;;;;16.10;12.63;;;17.40;99.90;;;;;;5112827;28;20448;-70
2023/06/06 03:55:26;;;;;;;15.95;13.10;;;17.40;99.90;;;;;;5112391;28;20028;-77
2023/06/06 03:57:53;;;;;;;15.52;12.35;;;17.40;99.90;;;;;;5112813;28;20020;-70
2023/06/06 04:00:19;;;;;;;14.68;12.75;;;17.40;99.90;;;;;;5116843;28;20036;-70
2023/06/06 04:02:46;;;;;;;16.40;12.93;;;17.40;99.90;;;;;;5116508;28;20357;-69
2023/06/06 04:05:12;;;;;;;17.67;13.60;;;17.40;99.90;;;;;;5116511;28;20387;-70
2023/06/06 04:07:39;;;;;;;14.98;13.07;;;17.50;99.90;;;;;;5116175;28;20027;-70
2023/06/06 04:10:05;;;;;;;14.25;12.50;;;17.50;99.90;;;;;;5116335;28;20105;-69
2023/06/06 04:12:31;;;;;;;15.40;13.13;;;17.50;99.90;;;;;;5115618;28;20036;-70
2023/06/06 04:14:57;;;;;;;14.88;12.63;;;17.50;99.90;;;;;;5116427;28;20031;-70
2023/06/06 04:17:26;;;;;;;17.83;13.18;;;17.50;99.90;;;;;;5116080;28;20097;-70
2023/06/06 04:19:52;;;;;;;14.63;13.10;;;17.60;99.90;;;;;;5115488;28;20106;-70
2023/06/06 04:22:20;;;;;;;15.35;12.57;;;17.60;99.90;;;;;;5115984;28;20043;-70
2023/06/06 04:24:46;;;;;;;18.50;13.02;;;17.60;99.90;;;;;;5115755;28;20491;-70
2023/06/06 04:27:12;;;;;;;15.00;13.15;;;17.60;99.90;;;;;;5116143;28;20051;-70
2023/06/06 04:29:41;;;;;;;16.45;13.80;;;17.60;99.90;;;;;;5115673;28;20112;-70
2023/06/06 04:32:08;;;;;;;13.98;12.48;;;17.70;99.90;;;;;;5115997;28;20028;-70
2023/06/06 04:34:39;;;;;;;17.48;12.98;;;17.70;99.90;;;;;;5115245;28;20460;-70
2023/06/06 04:37:05;;;;;;;;;;;17.70;99.90;;;;;;5116616;28;20053;-69
2023/06/06 04:39:32;;;;;;;17.48;12.73;;;17.80;99.90;;;;;;5115562;28;19903;-72
2023/06/06 04:42:02;;;;;;;16.45;12.93;;;17.80;99.90;;;;;;5115888;28;20027;-69
2023/06/06 04:44:28;;;;;;;14.00;11.73;;;17.80;99.90;;;;;;5115792;28;20032;-70
2023/06/06 04:47:01;;;;;;;14.43;12.82;;;17.90;99.90;;;;;;5114935;28;20479;-70
2023/06/06 04:49:35;;;;;;;17.52;13.43;;;17.90;99.90;;;;;;5115673;28;20031;-69
2023/06/06 04:52:02;;;;;;;16.92;13.30;;;17.90;99.90;;;;;;5115476;28;20520;-69
2023/06/06 04:54:28;;;;;;;15.52;13.57;;;18.00;99.90;;;;;;5115084;28;20026;-69
2023/06/06 04:56:56;;;;;;;14.82;13.00;;;18.00;99.90;;;;;;5114852;28;20020;-69
2023/06/06 04:59:22;;;;;;;17.50;13.38;;;18.00;99.90;;;;;;5115387;28;20043;-69
2023/06/06 05:01:48;;;;;;;15.55;13.40;;;18.00;99.90;;;;;;5115079;28;20024;-70
2023/06/06 05:04:15;;;;;;;14.65;12.18;;;18.00;99.90;;;;;;5115371;28;20141;-70
2023/06/06 05:06:41;;;;;;;15.30;12.70;;;18.00;99.90;;;;;;5115089;28;20043;-70
2023/06/06 05:09:07;;;;;;;13.57;12.18;;;18.10;99.90;;;;;;5115078;28;20448;-70
2023/06/06 05:11:36;;;;;;;17.13;12.10;;;18.10;99.90;;;;;;5114124;28;20027;-76
2023/06/06 05:14:02;;;;;;;16.02;12.00;;;18.20;99.90;;;;;;5114905;28;20023;-69
2023/06/06 05:16:28;;;;;;;15.90;11.95;;;18.30;99.90;;;;;;5114786;28;20028;-70
2023/06/06 05:18:54;;;;;;;16.65;11.95;;;18.30;99.90;;;;;;5114375;28;20142;-70
2023/06/06 05:21:20;;;;;;;16.63;12.07;;;18.50;99.90;;;;;;5114951;28;20027;-70
2023/06/06 05:23:46;;;;;;;15.88;11.88;;;18.50;99.90;;;;;;5114348;28;20026;-70
2023/06/06 05:26:12;;;;;;;14.23;11.85;;;18.60;99.90;;;;;;5114801;28;20102;-70
2023/06/06 05:28:38;;;;;;;15.63;11.63;;;18.60;99.90;;;;;;5114425;28;20428;-70
2023/06/06 05:31:08;;;;;;;15.70;12.25;;;18.70;99.90;;;;;;5120315;28;20059;-70
2023/06/06 05:33:34;;;;;;;18.10;11.55;;;18.70;99.90;;;;;;5116132;28;20030;-72
2023/06/06 05:36:03;;;;;;;13.48;11.60;;;18.90;99.90;;;;;;5115570;28;20409;-70
2023/06/06 05:38:28;;;;;;;17.60;11.48;;;19.00;99.90;;;;;;5114823;28;20114;-70
2023/06/06 05:40:54;;;;;;;13.68;11.43;;;19.10;99.90;;;;;;5114523;28;20420;-70
2023/06/06 05:43:19;;;;;;;12.45;10.05;;;19.20;99.90;;;;;;5113452;28;20519;-70
2023/06/06 05:45:45;;;;;;;13.68;11.18;;;19.30;99.90;;;;;;5114109;28;20071;-70
2023/06/06 05:48:11;;;;;;;16.33;11.18;;;19.40;99.90;;;;;;5114548;28;20032;-70
2023/06/06 05:50:37;;;;;;;13.90;10.98;;;19.50;99.90;;;;;;5114137;28;20063;-72
2023/06/06 05:53:02;;;;;;;12.88;11.43;;;19.50;99.90;;;;;;5114683;28;20027;-70
2023/06/06 05:55:35;;;;;;;17.20;11.00;;;19.50;99.90;;;;;;5114700;28;20368;-70
2023/06/06 05:58:03;;;;;;;14.27;11.27;;;19.60;99.90;;;;;;5114220;28;20101;-70
2023/06/06 06:00:30;;;;;;;14.63;10.25;;;19.60;99.90;;;;;;5113116;28;20059;-70
2023/06/06 06:02:57;;;;;;;13.48;10.88;;;19.70;99.90;;;;;;5113727;28;20418;-70
2023/06/06 06:05:28;;;;;;;13.82;11.60;;;19.70;99.90;;;;;;5113245;28;20336;-70
2023/06/06 06:07:54;;;;;;;17.38;10.98;;;19.70;99.90;;;;;;5114548;28;20056;-70
2023/06/06 06:10:21;;;;;;;14.82;11.05;;;19.70;99.90;;;;;;5115650;28;20039;-70
2023/06/06 06:12:47;;;;;;;17.13;11.52;;;19.70;99.90;;;;;;5114864;28;20122;-70
2023/06/06 06:15:13;;;;;;;13.65;11.00;;;19.70;99.90;;;;;;5114019;28;20031;-70
2023/06/06 06:17:38;;;;;;;17.92;11.80;;;19.60;99.90;;;;;;5113440;28;20020;-76
2023/06/06 06:20:08;;;;;;;15.02;12.35;;;19.50;99.90;;;;;;5113934;28;20043;-70
2023/06/06 06:22:37;;;;;;;18.70;11.13;;;19.50;99.90;;;;;;5113696;28;20035;-70
2023/06/06 06:25:04;;;;;;;14.32;11.23;;;19.50;99.90;;;;;;5113816;28;20024;-70
2023/06/06 06:27:31;;;;;;;13.77;10.20;;;19.80;99.90;;;;;;5114029;28;20028;-70
2023/06/06 06:29:57;;;;;;;14.55;10.57;;;20.40;99.90;;;;;;5113587;28;20036;-70
2023/06/06 06:32:23;;;;;;;13.65;9.73;;;20.60;99.90;;;;;;5113805;28;20059;-69
2023/06/06 06:34:49;;;;;;;16.90;10.38;;;20.90;99.90;;;;;;5113372;28;20072;-70
2023/06/06 06:37:16;;;;;;;11.38;9.32;;;21.40;99.90;;;;;;5113953;28;20438;-70
2023/06/06 06:39:42;;;;;;;13.70;9.20;;;22.40;99.90;;;;;;5113105;28;20041;-70
2023/06/06 06:42:08;;;;;;;16.63;10.23;;;23.10;99.90;;;;;;5113743;28;20024;-70
2023/06/06 06:44:33;;;;;;;12.93;8.45;;;23.20;97.90;;;;;;5113581;28;20032;-69
2023/06/06 06:46:59;;;;;;;11.63;8.82;;;23.60;99.10;;;;;;5113305;28;20044;-73
2023/06/06 06:49:25;;;;;;;12.98;9.02;;;23.90;97.10;;;;;;5113257;28;20042;-69
2023/06/06 06:51:52;;;;;;;13.95;9.27;;;24.30;94.30;;;;;;5113051;28;20460;-71
2023/06/06 06:54:21;;;;;;;14.30;9.48;;;24.60;93.00;;;;;;5113642;28;20024;-71
2023/06/06 06:56:48;;;;;;;16.58;8.82;;;24.40;92.40;;;;;;5113001;28;20038;-71
2023/06/06 06:59:14;;;;;;;11.80;8.73;;;24.40;91.70;;;;;;5113367;28;20501;-71
2023/06/06 07:01:40;;;;;;;10.50;8.75;;;24.30;91.60;;;;;;5113303;28;20024;-71
2023/06/06 07:04:07;;;;;;;11.40;8.27;;;24.50;91.30;;;;;;5112914;28;20093;-71
2023/06/06 07:06:34;;;;;;;13.32;8.73;;;24.60;90.60;;;;;;5113331;28;20020;-71
2023/06/06 07:09:00;;;;;;;12.48;8.55;;;24.70;89.10;;;;;;5112761;28;20026;-70
2023/06/06 07:11:27;;;;;;;16.77;9.43;;;24.90;88.60;;;;;;5113380;28;20066;-71
2023/06/06 07:13:52;;;;;;;13.38;8.90;;;25.10;87.70;;;;;;5112514;28;20024;-71
2023/06/06 07:16:18;;;;;;;9.48;7.97;;;25.30;87.60;;;;;;5112824;28;20030;-70
2023/06/06 07:18:47;;;;;;;11.20;8.57;;;25.60;87.20;;;;;;5112267;28;20035;-71
2023/06/06 07:21:13;;;;;;;12.15;8.13;;;25.60;83.30;;;;;;5113180;28;20460;-70
2023/06/06 07:23:39;;;;;;;12.70;9.02;;;25.60;83.40;;;;;;5112994;28;20027;-71
2023/06/06 07:26:06;;;;;;;13.90;8.90;;;25.70;81.80;;;;;;5112737;28;20035;-71
2023/06/06 07:28:32;;;;;;;11.40;8.40;;;26.00;82.40;;;;;;5112632;28;20486;-71
2023/06/06 07:30:59;;;;;;;12.27;8.15;;;26.40;82.10;;;;;;5112450;28;20031;-69
2023/06/06 07:33:25;;;;;;;8.93;8.02;;;26.80;79.30;;;;;;5113588;28;20468;-71
2023/06/06 07:35:51;;;;;;;9.98;8.63;;;27.20;77.10;;;;;;5116733;28;20030;-71
2023/06/06 07:38:16;;;;;;;12.10;8.85;;;27.30;73.30;;;;;;5116978;28;20023;-70
2023/06/06 07:40:42;;;;;;;9.50;8.50;;;27.50;73.60;;;;;;5117199;28;20084;-70
2023/06/06 07:43:08;;;;;;;13.88;7.60;;;28.00;73.80;;;;;;5116564;28;20020;-70
2023/06/06 07:45:33;;;;;;;9.90;7.85;;;27.90;71.70;;;;;;5116877;28;20028;-70
2023/06/06 07:47:59;;;;;;;9.63;7.68;;;27.50;71.10;;;;;;5116373;28;20035;-69
2023/06/06 07:50:25;;;;;;;11.65;9.07;;;27.50;72.70;;;;;;5116311;28;20035;-71
2023/06/06 07:52:51;;;;;;;11.02;8.63;;;27.50;69.70;;;;;;5116338;28;20491;-71
2023/06/06 07:55:20;;;;;;;11.43;8.43;;;27.10;70.40;;;;;;5116814;28;20027;-70
2023/06/06 07:57:46;;;;;;;10.20;9.07;;;27.00;73.60;;;;;;5116108;28;20039;-72
2023/06/06 08:00:15;;;;;;;13.00;9.07;;;26.70;71.40;;;;;;5116057;28;20024;-69
2023/06/06 08:02:40;;;;;;;12.38;9.05;;;26.20;71.90;;;;;;5115523;28;20032;-71
2023/06/06 08:05:07;;;;;;;10.65;9.23;;;25.90;73.30;;;;;;5116177;28;20024;-71
2023/06/06 08:07:38;;;;;;;19.55;10.23;;;25.60;74.10;;;;;;5116418;28;20032;-71
2023/06/06 08:10:05;;;;;;;15.10;10.55;;;25.20;75.30;;;;;;5116046;28;20039;-71
2023/06/06 08:12:32;;;;;;;10.82;9.68;;;24.80;76.50;;;;;;5116001;28;20106;-70
2023/06/06 08:14:58;;;;;;;15.70;10.07;;;24.50;77.40;;;;;;5115909;28;20020;-70
2023/06/06 08:17:23;;;;;;;13.68;9.75;;;24.20;79.10;;;;;;5116368;28;20076;-70
2023/06/06 08:19:49;;;;;;;14.57;10.02;;;23.90;80.60;;;;;;5115872;28;20024;-70
2023/06/06 08:22:15;;;;;;;14.43;9.73;;;23.70;81.50;;;;;;5116223;28;20474;-70
2023/06/06 08:24:41;;;;;;;12.98;9.93;;;23.40;83.20;;;;;;5116285;28;20015;-70
2023/06/06 08:27:07;;;;;;;16.58;10.68;;;23.20;84.60;;;;;;5115577;28;20216;-70
2023/06/06 08:29:33;;;;;;;12.32;10.40;;;23.00;85.50;;;;;;5115598;28;20110;-70
2023/06/06 08:32:01;;;;;;;12.05;8.85;;;22.90;86.30;;;;;;5115593;28;20079;-69
2023/06/06 08:34:28;;;;;;;16.45;10.38;;;22.70;88.30;;;;;;5115681;28;20034;-70
2023/06/06 08:36:53;;;;;;;12.80;9.90;;;22.70;90.00;;;;;;5115277;28;20023;-70
2023/06/06 08:39:20;;;;;;;14.77;10.38;;;22.60;90.00;;;;;;5115889;28;20148;-69
2023/06/06 08:41:55;;;;;;;11.73;9.75;;;22.40;89.30;;;;;;5115766;28;20043;-70
2023/06/06 08:44:23;;;;;;;14.73;10.30;;;22.30;90.60;;;;;;5115858;28;20042;-69
2023/06/06 08:46:58;;;;;;;13.20;9.85;;;22.20;90.90;;;;;;5115224;28;20525;-70
2023/06/06 08:49:27;;;;;;;16.80;9.80;;;22.20;91.30;;;;;;5115717;28;20492;-71
2023/06/06 08:51:53;;;;;;;14.25;9.23;;;22.10;91.30;;;;;;5115190;28;20035;-70
2023/06/06 08:54:19;;;;;;;10.57;9.25;;;22.00;90.80;;;;;;5115635;28;20035;-70
2023/06/06 08:56:46;;;;;;;10.82;9.40;;;22.00;91.50;;;;;;5115586;28;20118;-70
2023/06/06 08:59:12;;;;;;;10.93;9.07;;;21.90;91.40;;;;;;5114826;28;20042;-70
2023/06/06 09:01:38;;;;;;;11.38;9.07;;;21.90;91.80;;;;;;5115097;28;20023;-69
2023/06/06 09:04:06;;;;;;;11.63;9.48;;;21.90;91.90;;;;;;5114918;28;20515;-71
2023/06/06 09:06:43;;;;;;;12.48;9.32;;;21.90;91.80;;;;;;5115332;28;20073;-69
2023/06/06 09:09:09;;;;;;;12.32;9.65;;;21.90;91.80;;;;;;5114905;28;20444;-70
2023/06/06 09:11:35;;;;;;;13.02;9.43;;;21.90;92.30;;;;;;5115014;28;20114;-70
2023/06/06 09:14:01;;;;;;;14.82;9.77;;;21.80;92.60;;;;;;5114862;28;20459;-71
2023/06/06 09:16:28;;;;;;;13.48;9.40;;;21.80;92.30;;;;;;5115013;28;20023;-70
2023/06/06 09:18:57;;;;;;;13.73;9.00;;;21.80;92.70;;;;;;5114628;28;20055;-70
2023/06/06 09:21:27;;;;;;;13.80;10.32;;;21.70;92.20;;;;;;5114789;28;20376;-70
2023/06/06 09:23:54;;;;;;;16.58;9.80;;;21.70;92.50;;;;;;5114619;28;20027;-71
2023/06/06 09:26:20;;;;;;;12.90;9.30;;;21.60;92.70;;;;;;5115096;28;20027;-70
2023/06/06 09:28:48;;;;;;;16.63;9.48;;;21.70;92.90;;;;;;5113678;28;20054;-71
2023/06/06 09:31:23;;;;;;;15.88;9.60;;;21.70;93.40;;;;;;5113461;28;20047;-70
2023/06/06 09:33:53;;;;;;;10.88;9.20;;;21.60;93.20;;;;;;5114802;28;20023;-71
2023/06/06 09:36:24;;;;;;;12.23;8.63;;;21.60;92.70;;;;;;5114979;28;20128;-70
2023/06/06 09:38:51;;;;;;;10.88;8.43;;;21.60;92.90;;;;;;5114728;28;20062;-70
2023/06/06 09:41:17;;;;;;;12.77;7.75;;;21.60;92.90;;;;;;5114262;28;20035;-71
2023/06/06 09:43:43;;;;;;;17.52;8.30;;;21.60;92.60;;;;;;5114587;28;20168;-71
2023/06/06 09:46:14;;;;;;;14.10;8.88;;;21.60;92.50;;;;;;5113998;28;20092;-71
2023/06/06 09:48:39;;;;;;;11.95;9.05;;;21.60;92.70;;;;;;5114583;28;20039;-71
2023/06/06 09:51:05;;;;;;;12.25;9.88;;;21.70;93.60;;;;;;5114197;28;20031;-71
2023/06/06 09:53:31;;;;;;;14.40;9.68;;;21.70;93.40;;;;;;5114300;28;20464;-71
2023/06/06 09:56:02;;;;;;;13.45;8.77;;;21.70;93.60;;;;;;5113316;28;20030;-71
2023/06/06 09:58:31;;;;;;;11.20;9.25;;;21.80;93.60;;;;;;5113033;28;20035;-71
2023/06/06 10:00:58;;;;;;;10.60;8.80;;;21.90;93.80;;;;;;5113828;28;20081;-71
2023/06/06 10:03:24;;;;;;;11.55;8.93;;;21.90;93.40;;;;;;5114302;28;20081;-70
2023/06/06 10:05:51;;;;;;;12.40;8.48;;;21.90;92.40;;;;;;5114187;28;20034;-70
2023/06/06 10:08:19;;;;;;;10.68;8.35;;;22.00;91.90;;;;;;5112042;28;20110;-70
2023/06/06 10:10:49;;;;;;;12.23;9.30;;;22.10;92.10;;;;;;5114150;28;20028;-70
2023/06/06 10:13:22;;;;;;;12.20;8.20;;;22.10;91.30;;;;;;5113637;28;20220;-70
2023/06/06 10:15:49;;;;;;;11.40;8.43;;;22.20;90.70;;;;;;5113713;28;20023;-70
2023/06/06 10:18:16;;;;;;;11.27;8.70;;;22.30;91.60;;;;;;5113354;28;20557;-69
2023/06/06 10:20:44;;;;;;;9.85;7.75;;;22.40;90.80;;;;;;5113741;28;20034;-69
2023/06/06 10:23:10;;;;;;;16.95;8.68;;;22.50;91.70;;;;;;5113476;28;20028;-70
2023/06/06 10:25:37;;;;;;;12.52;8.88;;;22.70;92.00;;;;;;5113451;28;20383;-70
2023/06/06 10:28:09;;;;;;;9.82;8.30;;;22.80;90.40;;;;;;5113231;28;20470;-71
2023/06/06 10:30:55;;;;;;;12.13;8.30;;;22.90;90.40;;;;;;5113583;28;20480;-70
2023/06/06 10:33:32;;;;;;;9.00;7.95;;;22.90;90.50;;;;;;5113353;28;20031;-71
2023/06/06 10:36:03;;;;;;;16.23;9.00;;;23.10;90.60;;;;;;5113236;28;20020;-72
2023/06/06 10:38:30;;;;;;;11.65;8.35;;;23.10;90.30;;;;;;5113822;28;20440;-70
2023/06/06 10:41:00;;;;;;;9.20;7.53;;;23.10;90.20;;;;;;5113836;28;20101;-69
2023/06/06 10:43:37;;;;;;;11.95;8.02;;;23.10;89.70;;;;;;5113381;28;20069;-69
2023/06/06 10:46:03;;;;;;;10.73;7.35;;;23.00;87.40;;;;;;5112814;28;20048;-70
2023/06/06 10:48:39;;;;;;;9.63;7.50;;;23.00;88.20;;;;;;5113285;28;20039;-70
2023/06/06 10:51:21;;;;;;;12.43;7.32;;;23.10;87.90;;;;;;5112925;28;20035;-70
2023/06/06 10:53:46;;;;;;;12.32;8.50;;;23.00;87.50;;;;;;5113455;28;20051;-70
2023/06/06 10:56:31;;;;;;;11.90;7.32;;;23.10;88.00;;;;;;5112847;28;20050;-71
2023/06/06 10:58:57;;;;;;;7.72;6.95;;;23.20;89.10;;;;;;5113252;28;20042;-70
2023/06/06 11:01:26;;;;;;;10.52;6.45;;;23.30;88.00;;;;;;5112887;28;20024;-70
2023/06/06 11:03:51;;;;;;;10.20;6.47;;;23.30;86.80;;;;;;5113239;28;20024;-70
2023/06/06 11:06:20;;;;;;;10.48;6.85;;;23.30;85.00;;;;;;5112404;28;20049;-70
2023/06/06 11:08:59;;;;;;;9.15;6.82;;;23.30;84.10;;;;;;5112211;28;20062;-70
2023/06/06 11:11:30;;;;;;;11.20;7.47;;;23.30;85.80;;;;;;5113089;28;20035;-70
2023/06/06 11:14:06;;;;;;;11.70;7.47;;;23.30;84.70;;;;;;5113237;28;20468;-70
2023/06/06 11:16:38;;;;;;;9.93;7.25;;;23.40;84.50;;;;;;5113136;28;20364;-71
2023/06/06 11:19:09;;;;;;;10.30;6.85;;;23.40;83.60;;;;;;5112507;28;20122;-70
2023/06/06 11:21:36;;;;;;;9.32;6.60;;;23.20;83.40;;;;;;5113199;28;20091;-70
2023/06/06 11:24:03;;;;;;;13.10;7.70;;;23.30;84.10;;;;;;5112549;28;20016;-71
2023/06/06 11:26:28;;;;;;;9.02;6.70;;;23.30;83.50;;;;;;5112869;28;20103;-70
2023/06/06 11:28:55;;;;;;;11.00;6.97;;;23.40;84.90;;;;;;5112925;28;20039;-71
2023/06/06 11:31:23;;;;;;;10.10;7.55;;;23.40;84.00;;;;;;5112455;28;20451;-69
2023/06/06 11:33:50;;;;;;;9.70;6.47;;;23.50;84.00;;;;;;5112727;28;20024;-69
2023/06/06 11:36:16;;;;;;;7.80;5.38;;;23.60;83.90;;;;;;5112406;28;20073;-69
2023/06/06 11:38:42;;;;;;;8.50;6.05;;;23.60;82.70;;;;;;5112432;28;20030;-70
2023/06/06 11:41:08;;;;;;;7.95;5.85;;;23.60;82.20;;;;;;5111108;28;20108;-71
2023/06/06 11:43:34;;;;;;;10.52;6.75;;;23.80;82.80;;;;;;5112724;28;20110;-70
2023/06/06 11:46:05;;;;;;;8.65;6.60;;;23.90;83.10;;;;;;5112587;28;20047;-71
2023/06/06 11:48:30;;;;;;;6.60;6.00;;;23.90;81.50;;;;;;5112917;28;20028;-71
2023/06/06 11:50:56;;;;;;;9.57;5.68;;;24.00;80.60;;;;;;5112619;28;20031;-71
2023/06/06 11:53:32;;;;;;;7.70;5.68;;;24.00;80.60;;;;;;5112003;28;20663;-71
2023/06/06 11:55:59;;;;;;;7.93;5.97;;;23.90;78.90;;;;;;5112652;28;20035;-71
2023/06/06 11:58:25;;;;;;;9.38;6.00;;;23.80;79.30;;;;;;5111986;28;20476;-69
2023/06/06 12:00:56;;;;;;;11.45;7.38;;;23.70;80.10;;;;;;5112469;28;20453;-69
2023/06/06 12:03:22;;;;;;;8.02;5.82;;;23.60;78.60;;;;;;5112161;28;20024;-69
2023/06/06 12:06:04;;;;;;;6.97;6.30;;;23.60;80.10;;;;;;5111242;28;20088;-69
2023/06/06 12:08:34;;;;;;;10.48;6.80;;;23.50;81.60;;;;;;5112013;28;20024;-69
2023/06/06 12:11:22;;;;;;;14.77;9.60;;;23.50;82.30;;;;;;5112455;28;20444;-69
2023/06/06 12:13:48;;;;;;;18.10;11.32;;;23.40;84.60;;;;;;5111625;28;20058;-70
2023/06/06 12:16:20;;;;;;;16.90;12.45;;;23.30;87.60;;;;;;5111283;28;20500;-70
2023/06/06 12:18:47;;;;;;;14.30;12.88;;;23.20;88.90;;;;;;5112182;28;20024;-69
2023/06/06 12:21:16;;;;;;;14.88;11.63;;;23.10;90.20;;;;;;5115065;28;20016;-70
2023/06/06 12:23:43;;;;;;;15.77;12.98;;;22.90;90.50;;;;;;5115469;28;20380;-70
2023/06/06 12:26:13;;;;;;;15.52;13.63;;;22.80;90.80;;;;;;5114636;28;21983;-71
2023/06/06 12:28:59;;;;;;;17.88;15.82;;;22.70;91.40;;;;;;5115693;28;20027;-69
2023/06/06 12:31:27;;;;;;;21.15;16.85;;;22.70;92.30;;;;;;5115532;28;20492;-70
2023/06/06 12:33:53;;;;;;;19.02;15.45;;;22.70;92.50;;;;;;5115573;28;20031;-70
2023/06/06 12:36:21;;;;;;;17.25;15.45;;;22.70;92.50;;;;;;5115267;28;20035;-70